Observation data for McLean on 08/20/2019      Previous  Date       Current Mesonet Observations  Soil Data  Daily Summary Page  Observations in Plain Language
KMCS 200500Z 16005KT 27/17 A3004 RMK A01 T02670167  RH  057%=      5-min Rain = 0
KMCS 200505Z 16006KT 27/17 A3004 RMK A01 T02660167  RH  057%=      5-min Rain = 0
KMCS 200510Z 16006KT 27/17 A3004 RMK A01 T02650167  RH  058%=      5-min Rain = 0
KMCS 200515Z 16006KT 27/17 A3004 RMK A01 T02650167  RH  058%=      5-min Rain = 0
KMCS 200520Z 17007KT 27/17 A3004 RMK A01 T02650166  RH  057%=      5-min Rain = 0
KMCS 200525Z 16008KT 27/17 A3004 RMK A01 T02660165  RH  057%=      5-min Rain = 0
KMCS 200530Z 16009KT 27/16 A3004 RMK A01 T02670164  RH  056%=      5-min Rain = 0
KMCS 200535Z 16009KT 27/16 A3004 RMK A01 T02680164  RH  056%=      5-min Rain = 0
KMCS 200540Z 17009KT 27/16 A3004 RMK A01 T02690163  RH  055%=      5-min Rain = 0
KMCS 200545Z 17010KT 27/16 A3004 RMK A01 T02700162  RH  054%=      5-min Rain = 0
KMCS 200550Z 17010KT 27/16 A3004 RMK A01 T02720162  RH  054%=      5-min Rain = 0
KMCS 200555Z 17010KT 27/16 A3004 RMK A01 T02730162  RH  053%=      5-min Rain = 0
KMCS 200600Z 17011KT 28/16 A3004 RMK A01 T02750161  RH  052%=      5-min Rain = 0
KMCS 200605Z 17010KT 28/16 A3004 RMK A01 T02760161  RH  052%=      5-min Rain = 0
KMCS 200610Z 17010KT 28/16 A3004 RMK A01 T02760161  RH  052%=      5-min Rain = 0
KMCS 200615Z 17011KT 28/16 A3004 RMK A01 T02770161  RH  052%=      5-min Rain = 0
KMCS 200620Z 17011KT 28/16 A3004 RMK A01 T02770161  RH  052%=      5-min Rain = 0
KMCS 200625Z 17009KT 27/16 A3005 RMK A01 T02740161  RH  053%=      5-min Rain = 0
KMCS 200630Z 17009KT 27/16 A3005 RMK A01 T02720162  RH  053%=      5-min Rain = 0
KMCS 200635Z 16009KT 27/16 A3005 RMK A01 T02710162  RH  054%=      5-min Rain = 0
KMCS 200640Z 17010KT 27/16 A3005 RMK A01 T02690162  RH  055%=      5-min Rain = 0
KMCS 200645Z 17009KT 27/16 A3005 RMK A01 T02680163  RH  055%=      5-min Rain = 0
KMCS 200650Z 16009KT 27/16 A3005 RMK A01 T02660163  RH  056%=      5-min Rain = 0
KMCS 200655Z 16010KT 27/16 A3005 RMK A01 T02650163  RH  056%=      5-min Rain = 0
KMCS 200700Z 16009KT 26/16 A3005 RMK A01 T02640163  RH  056%=      5-min Rain = 0
KMCS 200705Z 16009KT 26/16 A3005 RMK A01 T02620164  RH  057%=      5-min Rain = 0
KMCS 200710Z 16009KT 26/16 A3004 RMK A01 T02610164  RH  058%=      5-min Rain = 0
KMCS 200715Z 16010KT 26/17 A3004 RMK A01 T02610165  RH  058%=      5-min Rain = 0
KMCS 200720Z 16010KT 26/17 A3004 RMK A01 T02610165  RH  058%=      5-min Rain = 0
KMCS 200725Z 17010KT 26/17 A3004 RMK A01 T02610165  RH  058%=      5-min Rain = 0
KMCS 200730Z 16009KT 26/17 A3004 RMK A01 T02610165  RH  058%=      5-min Rain = 0
KMCS 200735Z 17010KT 26/17 A3004 RMK A01 T02620165  RH  058%=      5-min Rain = 0
KMCS 200740Z 17009KT 26/17 A3004 RMK A01 T02610165  RH  058%=      5-min Rain = 0
KMCS 200745Z 17010KT 26/17 A3004 RMK A01 T02620165  RH  058%=      5-min Rain = 0
KMCS 200750Z 17011KT 26/17 A3004 RMK A01 T02620165  RH  058%=      5-min Rain = 0
KMCS 200755Z 17011KT 26/17 A3004 RMK A01 T02630165  RH  058%=      5-min Rain = 0
KMCS 200800Z 17011KT 26/17 A3004 RMK A01 T02620165  RH  058%=      5-min Rain = 0
KMCS 200805Z 17011KT 26/17 A3005 RMK A01 T02620165  RH  058%=      5-min Rain = 0
KMCS 200810Z 17010KT 26/17 A3005 RMK A01 T02610166  RH  059%=      5-min Rain = 0
KMCS 200815Z 17010KT 26/17 A3005 RMK A01 T02600166  RH  059%=      5-min Rain = 0
KMCS 200820Z 17010KT 26/17 A3005 RMK A01 T02590165  RH  059%=      5-min Rain = 0
KMCS 200825Z 17011KT 26/17 A3005 RMK A01 T02590166  RH  059%=      5-min Rain = 0
KMCS 200830Z 17011KT 26/17 A3005 RMK A01 T02590165  RH  059%=      5-min Rain = 0
KMCS 200835Z 17011KT 26/17 A3004 RMK A01 T02580165  RH  059%=      5-min Rain = 0
KMCS 200840Z 17011KT 26/17 A3004 RMK A01 T02570165  RH  060%=      5-min Rain = 0
KMCS 200845Z 17011KT 26/17 A3004 RMK A01 T02570165  RH  060%=      5-min Rain = 0
KMCS 200850Z 17011KT 26/17 A3004 RMK A01 T02580165  RH  059%=      5-min Rain = 0
KMCS 200855Z 17011KT 26/17 A3004 RMK A01 T02570165  RH  060%=      5-min Rain = 0
KMCS 200900Z 17011KT 26/17 A3004 RMK A01 T02560165  RH  060%=      5-min Rain = 0
KMCS 200905Z 17010KT 26/17 A3004 RMK A01 T02560165  RH  060%=      5-min Rain = 0
KMCS 200910Z 17010KT 26/17 A3004 RMK A01 T02550166  RH  061%=      5-min Rain = 0
KMCS 200915Z 17010KT 26/17 A3005 RMK A01 T02550165  RH  060%=      5-min Rain = 0
KMCS 200920Z 18009KT 26/17 A3005 RMK A01 T02550166  RH  061%=      5-min Rain = 0
KMCS 200925Z 18010KT 25/17 A3005 RMK A01 T02540166  RH  061%=      5-min Rain = 0
KMCS 200930Z 19008KT 25/17 A3005 RMK A01 T02520166  RH  062%=      5-min Rain = 0
KMCS 200935Z 19009KT 25/17 A3005 RMK A01 T02510166  RH  062%=      5-min Rain = 0
KMCS 200940Z 19008KT 25/17 A3005 RMK A01 T02500167  RH  063%=      5-min Rain = 0
KMCS 200945Z 19008KT 25/17 A3005 RMK A01 T02490167  RH  063%=      5-min Rain = 0
KMCS 200950Z 18007KT 25/17 A3005 RMK A01 T02480167  RH  064%=      5-min Rain = 0
KMCS 200955Z 18007KT 25/17 A3005 RMK A01 T02470167  RH  064%=      5-min Rain = 0
KMCS 201000Z 18007KT 25/17 A3005 RMK A01 T02470167  RH  064%=      5-min Rain = 0
KMCS 201005Z 19007KT 25/17 A3005 RMK A01 T02470167  RH  064%=      5-min Rain = 0
KMCS 201010Z 18008KT 25/17 A3005 RMK A01 T02470167  RH  064%=      5-min Rain = 0
KMCS 201015Z 18009KT 25/17 A3004 RMK A01 T02460167  RH  064%=      5-min Rain = 0
KMCS 201020Z 18007KT 25/17 A3005 RMK A01 T02470168  RH  065%=      5-min Rain = 0
KMCS 201025Z 18008KT 25/17 A3005 RMK A01 T02470168  RH  065%=      5-min Rain = 0
KMCS 201030Z 18008KT 25/17 A3005 RMK A01 T02460168  RH  065%=      5-min Rain = 0
KMCS 201035Z 18008KT 25/17 A3005 RMK A01 T02460168  RH  065%=      5-min Rain = 0
KMCS 201040Z 19007KT 25/17 A3005 RMK A01 T02450168  RH  065%=      5-min Rain = 0
KMCS 201045Z 19007KT 25/17 A3005 RMK A01 T02450168  RH  065%=      5-min Rain = 0
KMCS 201050Z 18007KT 24/17 A3005 RMK A01 T02440168  RH  066%=      5-min Rain = 0
KMCS 201055Z 19006KT 24/17 A3005 RMK A01 T02440168  RH  066%=      5-min Rain = 0
KMCS 201100Z 19006KT 24/17 A3005 RMK A01 T02440168  RH  066%=      5-min Rain = 0
KMCS 201105Z 19006KT 24/17 A3005 RMK A01 T02430168  RH  066%=      5-min Rain = 0
KMCS 201110Z 18005KT 24/17 A3005 RMK A01 T02420169  RH  067%=      5-min Rain = 0
KMCS 201115Z 16005KT 24/17 A3006 RMK A01 T02410168  RH  067%=      5-min Rain = 0
KMCS 201120Z 14005KT 24/17 A3006 RMK A01 T02410168  RH  067%=      5-min Rain = 0
KMCS 201125Z 14005KT 24/17 A3006 RMK A01 T02380169  RH  068%=      5-min Rain = 0
KMCS 201130Z 15005KT 24/17 A3006 RMK A01 T02350169  RH  070%=      5-min Rain = 0
KMCS 201135Z 17006KT 24/17 A3006 RMK A01 T02360169  RH  069%=      5-min Rain = 0
KMCS 201140Z 18005KT 24/17 A3006 RMK A01 T02360169  RH  069%=      5-min Rain = 0
KMCS 201145Z 18005KT 23/17 A3006 RMK A01 T02330169  RH  071%=      5-min Rain = 0
KMCS 201150Z 16006KT 23/17 A3006 RMK A01 T02330169  RH  071%=      5-min Rain = 0
KMCS 201155Z 16006KT 23/17 A3006 RMK A01 T02330168  RH  070%=      5-min Rain = 0
KMCS 201200Z 17006KT 23/17 A3006 RMK A01 T02340168  RH  070%=      5-min Rain = 0
KMCS 201205Z 17005KT 23/17 A3006 RMK A01 T02340168  RH  070%=      5-min Rain = 0
KMCS 201210Z 17005KT 23/17 A3007 RMK A01 T02340169  RH  070%=      5-min Rain = 0
KMCS 201215Z 17005KT 24/17 A3007 RMK A01 T02350168  RH  070%=      5-min Rain = 0
KMCS 201220Z 18006KT 24/17 A3007 RMK A01 T02360168  RH  069%=      5-min Rain = 0
KMCS 201225Z 18006KT 24/17 A3007 RMK A01 T02360169  RH  069%=      5-min Rain = 0
KMCS 201230Z 19006KT 24/17 A3006 RMK A01 T02370169  RH  069%=      5-min Rain = 0
KMCS 201235Z 19007KT 24/17 A3006 RMK A01 T02380169  RH  069%=      5-min Rain = 0
KMCS 201240Z 19006KT 24/17 A3006 RMK A01 T02380169  RH  069%=      5-min Rain = 0
KMCS 201245Z 19006KT 24/17 A3007 RMK A01 T02370170  RH  069%=      5-min Rain = 0
KMCS 201250Z 18005KT 24/17 A3007 RMK A01 T02370171  RH  070%=      5-min Rain = 0
KMCS 201255Z 17005KT 24/17 A3007 RMK A01 T02370170  RH  070%=      5-min Rain = 0
KMCS 201300Z 17005KT 24/17 A3007 RMK A01 T02380171  RH  069%=      5-min Rain = 0
KMCS 201305Z 16004KT 24/17 A3007 RMK A01 T02380171  RH  069%=      5-min Rain = 0
KMCS 201310Z 16005KT 24/17 A3007 RMK A01 T02380171  RH  069%=      5-min Rain = 0
KMCS 201315Z 17006KT 24/17 A3007 RMK A01 T02400172  RH  069%=      5-min Rain = 0
KMCS 201320Z 17006KT 25/17 A3007 RMK A01 T02450173  RH  067%=      5-min Rain = 0
KMCS 201325Z 18007KT 25/17 A3007 RMK A01 T02480173  RH  066%=      5-min Rain = 0
KMCS 201330Z 18007KT 25/17 A3007 RMK A01 T02510174  RH  066%=      5-min Rain = 0
KMCS 201335Z 18008KT 25/17 A3008 RMK A01 T02540173  RH  064%=      5-min Rain = 0
KMCS 201340Z 18007KT 26/17 A3008 RMK A01 T02580173  RH  063%=      5-min Rain = 0
KMCS 201345Z 18007KT 26/17 A3008 RMK A01 T02610174  RH  062%=      5-min Rain = 0
KMCS 201350Z 19008KT 26/17 A3008 RMK A01 T02630173  RH  061%=      5-min Rain = 0
KMCS 201355Z 19008KT 26/17 A3008 RMK A01 T02640172  RH  060%=      5-min Rain = 0
KMCS 201400Z 19009KT 27/17 A3008 RMK A01 T02650171  RH  059%=      5-min Rain = 0
KMCS 201405Z 19008KT 27/17 A3008 RMK A01 T02680172  RH  058%=      5-min Rain = 0
KMCS 201410Z 19008KT 27/17 A3008 RMK A01 T02720173  RH  058%=      5-min Rain = 0
KMCS 201415Z 19008KT 28/17 A3008 RMK A01 T02750174  RH  057%=      5-min Rain = 0
KMCS 201420Z 19008KT 28/17 A3008 RMK A01 T02760172  RH  056%=      5-min Rain = 0
KMCS 201425Z 19008KT 28/17 A3008 RMK A01 T02800172  RH  055%=      5-min Rain = 0
KMCS 201430Z 19007KT 28/17 A3008 RMK A01 T02840172  RH  053%=      5-min Rain = 0
KMCS 201435Z 21009KT 29/17 A3008 RMK A01 T02870171  RH  052%=      5-min Rain = 0
KMCS 201440Z 20009KT 29/17 A3008 RMK A01 T02910170  RH  050%=      5-min Rain = 0
KMCS 201445Z 21010KT 30/17 A3008 RMK A01 T02950168  RH  049%=      5-min Rain = 0
KMCS 201450Z 22011KT 30/17 A3008 RMK A01 T02980167  RH  048%=      5-min Rain = 0
KMCS 201455Z 22012KT 30/17 A3008 RMK A01 T02990165  RH  047%=      5-min Rain = 0
KMCS 201500Z 23013KT 30/16 A3008 RMK A01 T03010163  RH  046%=      5-min Rain = 0
KMCS 201505Z 23012KT 30/17 A3008 RMK A01 T03040166  RH  045%=      5-min Rain = 0
KMCS 201510Z 23013KT 31/16 A3008 RMK A01 T03080163  RH  044%=      5-min Rain = 0
KMCS 201515Z 23012G17KT 31/16 A3008 RMK A01 T03090163  RH  044%=      5-min Rain = 0
KMCS 201520Z 23014G20KT 31/16 A3008 RMK A01 T03090163  RH  043%=      5-min Rain = 0
KMCS 201525Z 24016KT 31/16 A3008 RMK A01 T03110163  RH  043%=      5-min Rain = 0
KMCS 201530Z 23015KT 31/16 A3008 RMK A01 T03130160  RH  042%=      5-min Rain = 0
KMCS 201535Z 24013KT 32/16 A3008 RMK A01 T03150162  RH  042%=      5-min Rain = 0
KMCS 201540Z 23014KT 32/16 A3008 RMK A01 T03180162  RH  041%=      5-min Rain = 0
KMCS 201545Z 23012KT 32/16 A3008 RMK A01 T03200161  RH  040%=      5-min Rain = 0
KMCS 201550Z 23012KT 32/16 A3008 RMK A01 T03220160  RH  039%=      5-min Rain = 0
KMCS 201555Z 24013KT 32/16 A3008 RMK A01 T03240161  RH  039%=      5-min Rain = 0
KMCS 201600Z 25014KT 32/16 A3008 RMK A01 T03240159  RH  039%=      5-min Rain = 0
KMCS 201605Z 23014KT 33/16 A3008 RMK A01 T03250158  RH  038%=      5-min Rain = 0
KMCS 201610Z 23012G18KT 33/16 A3008 RMK A01 T03290161  RH  038%=      5-min Rain = 0
KMCS 201615Z 24012G19KT 33/16 A3008 RMK A01 T03310159  RH  037%=      5-min Rain = 0
KMCS 201620Z 23013KT 33/16 A3009 RMK A01 T03310158  RH  037%=      5-min Rain = 0
KMCS 201625Z 23015KT 33/16 A3009 RMK A01 T03320158  RH  037%=      5-min Rain = 0
KMCS 201630Z 23012KT 33/16 A3009 RMK A01 T03340159  RH  037%=      5-min Rain = 0
KMCS 201635Z 23011G16KT 34/16 A3009 RMK A01 T03380161  RH  036%=      5-min Rain = 0
KMCS 201640Z 23012KT 34/16 A3009 RMK A01 T03410161  RH  036%=      5-min Rain = 0
KMCS 201645Z 22012KT 34/16 A3009 RMK A01 T03420160  RH  036%=      5-min Rain = 0
KMCS 201650Z 24011G16KT 34/16 A3009 RMK A01 T03420159  RH  035%=      5-min Rain = 0
KMCS 201655Z 24011G18KT 34/16 A3009 RMK A01 T03400158  RH  035%=      5-min Rain = 0
KMCS 201700Z 24012G18KT 34/16 A3009 RMK A01 T03410160  RH  035%=      5-min Rain = 0
KMCS 201705Z 24012KT 34/16 A3009 RMK A01 T03400160  RH  036%=      5-min Rain = 0
KMCS 201710Z 23012KT 34/16 A3009 RMK A01 T03410159  RH  035%=      5-min Rain = 0
KMCS 201715Z 24012KT 34/16 A3009 RMK A01 T03390155  RH  035%=      5-min Rain = 0
KMCS 201720Z 24009KT 34/16 A3009 RMK A01 T03400159  RH  036%=      5-min Rain = 0
KMCS 201725Z 23010G15KT 34/16 A3009 RMK A01 T03440158  RH  035%=      5-min Rain = 0
KMCS 201730Z 24008KT 35/16 A3009 RMK A01 T03460158  RH  034%=      5-min Rain = 0
KMCS 201735Z 23008G13KT 35/16 A3009 RMK A01 T03450157  RH  034%=      5-min Rain = 0
KMCS 201740Z 22011G16KT 35/15 A3008 RMK A01 T03500154  RH  033%=      5-min Rain = 0
KMCS 201745Z 22011G16KT 35/16 A3008 RMK A01 T03480155  RH  033%=      5-min Rain = 0
KMCS 201750Z 22009KT 35/16 A3008 RMK A01 T03510155  RH  033%=      5-min Rain = 0
KMCS 201755Z 23007G13KT 35/16 A3008 RMK A01 T03540160  RH  033%=      5-min Rain = 0
KMCS 201800Z 22007KT 35/15 A3008 RMK A01 T03520153  RH  032%=      5-min Rain = 0
KMCS 201805Z 23009G14KT 35/15 A3008 RMK A01 T03520151  RH  032%=      5-min Rain = 0
KMCS 201810Z 21011KT 35/14 A3008 RMK A01 T03540142  RH  029%=      5-min Rain = 0
KMCS 201815Z 21011G18KT 36/14 A3008 RMK A01 T03570138  RH  028%=      5-min Rain = 0
KMCS 201820Z 20008G14KT 36/14 A3008 RMK A01 T03610139  RH  028%=      5-min Rain = 0
KMCS 201825Z 20009KT 36/14 A3008 RMK A01 T03630139  RH  027%=      5-min Rain = 0
KMCS 201830Z 22008G14KT 36/14 A3008 RMK A01 T03610140  RH  028%=      5-min Rain = 0
KMCS 201835Z 21010G16KT 36/14 A3008 RMK A01 T03600141  RH  028%=      5-min Rain = 0
KMCS 201840Z 20007G15KT 36/14 A3007 RMK A01 T03600142  RH  028%=      5-min Rain = 0
KMCS 201845Z 21009KT 36/14 A3007 RMK A01 T03600143  RH  029%=      5-min Rain = 0
KMCS 201850Z 19009G14KT 37/14 A3007 RMK A01 T03670135  RH  026%=      5-min Rain = 0
KMCS 201855Z 17010G15KT 37/14 A3006 RMK A01 T03720140  RH  026%=      5-min Rain = 0
KMCS 201900Z 17012G17KT 37/14 A3006 RMK A01 T03730137  RH  026%=      5-min Rain = 0
KMCS 201905Z 17010G16KT 37/14 A3006 RMK A01 T03700139  RH  026%=      5-min Rain = 0
KMCS 201910Z 18010G16KT 37/14 A3006 RMK A01 T03700138  RH  026%=      5-min Rain = 0
KMCS 201915Z 18013G18KT 37/14 A3006 RMK A01 T03730140  RH  026%=      5-min Rain = 0
KMCS 201920Z 17012KT 37/14 A3006 RMK A01 T03710141  RH  027%=      5-min Rain = 0
KMCS 201925Z 16008G14KT 37/14 A3006 RMK A01 T03720141  RH  026%=      5-min Rain = 0
KMCS 201930Z 20012G18KT 37/14 A3006 RMK A01 T03720142  RH  027%=      5-min Rain = 0
KMCS 201935Z 16006G13KT 37/14 A3006 RMK A01 T03710144  RH  027%=      5-min Rain = 0
KMCS 201940Z 16009G14KT 37/14 A3006 RMK A01 T03710141  RH  027%=      5-min Rain = 0
KMCS 201945Z 16006KT 37/14 A3005 RMK A01 T03700144  RH  027%=      5-min Rain = 0
KMCS 201950Z 16009G14KT 37/14 A3005 RMK A01 T03720141  RH  026%=      5-min Rain = 0
KMCS 201955Z 15009G14KT 37/14 A3005 RMK A01 T03740142  RH  026%=      5-min Rain = 0
KMCS 202000Z 16007G12KT 38/14 A3005 RMK A01 T03770144  RH  026%=      5-min Rain = 0
KMCS 202005Z 19009G14KT 38/14 A3005 RMK A01 T03770142  RH  026%=      5-min Rain = 0
KMCS 202010Z 18009G14KT 37/14 A3004 RMK A01 T03740141  RH  026%=      5-min Rain = 0
KMCS 202015Z 19010KT 37/14 A3004 RMK A01 T03740139  RH  026%=      5-min Rain = 0
KMCS 202020Z 16008KT 38/14 A3004 RMK A01 T03780139  RH  025%=      5-min Rain = 0
KMCS 202025Z 14007G13KT 37/14 A3004 RMK A01 T03740138  RH  026%=      5-min Rain = 0
KMCS 202030Z 15007G12KT 37/14 A3003 RMK A01 T03690138  RH  026%=      5-min Rain = 0
KMCS 202035Z 18011G16KT 38/14 A3003 RMK A01 T03750139  RH  026%=      5-min Rain = 0
KMCS 202040Z 19009G14KT 38/14 A3003 RMK A01 T03760137  RH  025%=      5-min Rain = 0
KMCS 202045Z 15009KT 37/14 A3003 RMK A01 T03730140  RH  026%=      5-min Rain = 0
KMCS 202050Z 15011KT 37/14 A3002 RMK A01 T03670142  RH  027%=      5-min Rain = 0
KMCS 202055Z 15010G16KT 38/14 A3002 RMK A01 T03760144  RH  026%=      5-min Rain = 0
KMCS 202100Z 15009G16KT 37/14 A3002 RMK A01 T03710141  RH  027%=      5-min Rain = 0
KMCS 202105Z 15010G16KT 37/14 A3002 RMK A01 T03710144  RH  027%=      5-min Rain = 0
KMCS 202110Z 20012KT 37/14 A3001 RMK A01 T03680140  RH  027%=      5-min Rain = 0
KMCS 202115Z 19012G18KT 37/14 A3001 RMK A01 T03720140  RH  026%=      5-min Rain = 0
KMCS 202120Z 18010KT 37/14 A3001 RMK A01 T03700140  RH  026%=      5-min Rain = 0
KMCS 202125Z 15010KT 38/14 A3001 RMK A01 T03760143  RH  026%=      5-min Rain = 0
KMCS 202130Z 15011G16KT 38/14 A3001 RMK A01 T03760142  RH  026%=      5-min Rain = 0
KMCS 202135Z 15010G15KT 37/14 A3001 RMK A01 T03730140  RH  026%=      5-min Rain = 0
KMCS 202140Z 16011KT 38/14 A3001 RMK A01 T03790138  RH  025%=      5-min Rain = 0
KMCS 202145Z 17011G16KT 38/14 A30 RMK A01 T03770137  RH  025%=      5-min Rain = 0
KMCS 202150Z 16008KT 37/14 A30 RMK A01 T03710136  RH  026%=      5-min Rain = 0
KMCS 202155Z 17010G15KT 37/14 A30 RMK A01 T03660135  RH  026%=      5-min Rain = 0
KMCS 202200Z 16010KT 37/13 A30 RMK A01 T03670134  RH  026%=      5-min Rain = 0
KMCS 202205Z 16011G18KT 36/14 A30 RMK A01 T03640144  RH  028%=      5-min Rain = 0
KMCS 202210Z 17010KT 36/14 A3001 RMK A01 T03620137  RH  027%=      5-min Rain = 0
KMCS 202215Z 16006KT 36/15 A3001 RMK A01 T03590146  RH  029%=      5-min Rain = 0
KMCS 202220Z 15010KT 36/15 A3001 RMK A01 T03570145  RH  029%=      5-min Rain = 0
KMCS 202225Z 15011G16KT 35/15 A30 RMK A01 T03540148  RH  031%=      5-min Rain = 0
KMCS 202230Z 15008G14KT 35/15 A30 RMK A01 T03540150  RH  031%=      5-min Rain = 0
KMCS 202235Z 15009G15KT 35/15 A30 RMK A01 T03540149  RH  031%=      5-min Rain = 0
KMCS 202240Z 16011KT 35/15 A30 RMK A01 T03530149  RH  031%=      5-min Rain = 0
KMCS 202245Z 14010G15KT 35/15 A30 RMK A01 T03510149  RH  031%=      5-min Rain = 0
KMCS 202250Z 16010KT 35/15 A3001 RMK A01 T03500149  RH  031%=      5-min Rain = 0
KMCS 202255Z 15008KT 35/15 A3001 RMK A01 T03510150  RH  031%=      5-min Rain = 0
KMCS 202300Z 15010KT 35/15 A3001 RMK A01 T03480149  RH  032%=      5-min Rain = 0
KMCS 202305Z 15010KT 35/15 A3001 RMK A01 T03470149  RH  032%=      5-min Rain = 0
KMCS 202310Z 15009KT 35/15 A3001 RMK A01 T03470149  RH  032%=      5-min Rain = 0
KMCS 202315Z 14009G14KT 35/15 A3001 RMK A01 T03460151  RH  033%=      5-min Rain = 0
KMCS 202320Z 15008KT 35/15 A30 RMK A01 T03470152  RH  033%=      5-min Rain = 0
KMCS 202325Z 15007KT 35/15 A30 RMK A01 T03460152  RH  033%=      5-min Rain = 0
KMCS 202330Z 14008KT 34/15 A30 RMK A01 T03440152  RH  033%=      5-min Rain = 0
KMCS 202335Z 14010KT 34/15 A30 RMK A01 T03430151  RH  033%=      5-min Rain = 0
KMCS 202340Z 14009KT 34/15 A30 RMK A01 T03420150  RH  033%=      5-min Rain = 0
KMCS 202345Z 14009KT 34/15 A30 RMK A01 T03410151  RH  034%=      5-min Rain = 0
KMCS 202350Z 14010G16KT 34/15 A30 RMK A01 T03390149  RH  033%=      5-min Rain = 0
KMCS 202355Z 14011KT 34/15 A30 RMK A01 T03390148  RH  033%=      5-min Rain = 0
KMCS 210000Z 15010KT 34/15 A30 RMK A01 T03380150  RH  034%=      5-min Rain = 0
KMCS 210005Z 15010G15KT 34/15 A30 RMK A01 T03360151  RH  034%=      5-min Rain = 0
KMCS 210010Z 16011KT 34/15 A30 RMK A01 T03360151  RH  034%=      5-min Rain = 0
KMCS 210015Z 16010KT 34/15 A30 RMK A01 T03350151  RH  035%=      5-min Rain = 0
KMCS 210020Z 16010KT 33/15 A30 RMK A01 T03340150  RH  035%=      5-min Rain = 0
KMCS 210025Z 16009KT 33/15 A30 RMK A01 T03330150  RH  035%=      5-min Rain = 0
KMCS 210030Z 16009KT 33/15 A30 RMK A01 T03320150  RH  035%=      5-min Rain = 0
KMCS 210035Z 16008KT 33/15 A30 RMK A01 T03310152  RH  036%=      5-min Rain = 0
KMCS 210040Z 16008KT 33/15 A30 RMK A01 T03290152  RH  036%=      5-min Rain = 0
KMCS 210045Z 16008KT 33/15 A3001 RMK A01 T03290151  RH  036%=      5-min Rain = 0
KMCS 210050Z 16007KT 33/15 A3001 RMK A01 T03280152  RH  036%=      5-min Rain = 0
KMCS 210055Z 16007KT 33/15 A3001 RMK A01 T03270152  RH  036%=      5-min Rain = 0
KMCS 210100Z 16007KT 33/15 A3001 RMK A01 T03270153  RH  037%=      5-min Rain = 0
KMCS 210105Z 16006KT 33/15 A3001 RMK A01 T03270153  RH  037%=      5-min Rain = 0
KMCS 210110Z 16007KT 33/15 A3001 RMK A01 T03260153  RH  037%=      5-min Rain = 0
KMCS 210115Z 17007KT 33/15 A3001 RMK A01 T03250152  RH  037%=      5-min Rain = 0
KMCS 210120Z 16006KT 32/15 A3001 RMK A01 T03230152  RH  037%=      5-min Rain = 0
KMCS 210125Z 16006KT 32/15 A3002 RMK A01 T03210152  RH  038%=      5-min Rain = 0
KMCS 210130Z 16005KT 32/15 A3002 RMK A01 T03190152  RH  038%=      5-min Rain = 0
KMCS 210135Z 17005KT 32/15 A3002 RMK A01 T03160153  RH  039%=      5-min Rain = 0
KMCS 210140Z 14004KT 31/15 A3002 RMK A01 T03140153  RH  040%=      5-min Rain = 0
KMCS 210145Z 11004KT 31/16 A3003 RMK A01 T03050157  RH  043%=      5-min Rain = 0
KMCS 210150Z 13005KT 30/16 A3003 RMK A01 T03020156  RH  043%=      5-min Rain = 0
KMCS 210155Z 15006KT 31/16 A3003 RMK A01 T03050156  RH  043%=      5-min Rain = 0
KMCS 210200Z 15006KT 31/16 A3003 RMK A01 T03070156  RH  042%=      5-min Rain = 0
KMCS 210205Z 13005KT 30/16 A3003 RMK A01 T03040158  RH  043%=      5-min Rain = 0
KMCS 210210Z 15005KT 30/16 A3003 RMK A01 T03020158  RH  044%=      5-min Rain = 0
KMCS 210215Z 16005KT 30/16 A3004 RMK A01 T03040157  RH  043%=      5-min Rain = 0
KMCS 210220Z 18005KT 30/16 A3004 RMK A01 T03030158  RH  044%=      5-min Rain = 0
KMCS 210225Z 18005KT 30/16 A3004 RMK A01 T02970160  RH  046%=      5-min Rain = 0
KMCS 210230Z 15005KT 30/16 A3004 RMK A01 T02990158  RH  044%=      5-min Rain = 0
KMCS 210235Z 15005KT 30/16 A3004 RMK A01 T02970158  RH  045%=      5-min Rain = 0
KMCS 210240Z 15005KT 30/16 A3004 RMK A01 T02970157  RH  045%=      5-min Rain = 0
KMCS 210245Z 15005KT 30/16 A3004 RMK A01 T02960157  RH  045%=      5-min Rain = 0
KMCS 210250Z 14005KT 29/16 A3005 RMK A01 T02940158  RH  046%=      5-min Rain = 0
KMCS 210255Z 14005KT 29/16 A3005 RMK A01 T02920159  RH  047%=      5-min Rain = 0
KMCS 210300Z 14005KT 29/16 A3005 RMK A01 T02910160  RH  047%=      5-min Rain = 0
KMCS 210305Z 15005KT 29/16 A3005 RMK A01 T02900159  RH  047%=      5-min Rain = 0
KMCS 210310Z 15007KT 29/16 A3005 RMK A01 T02900158  RH  047%=      5-min Rain = 0
KMCS 210315Z 15006KT 29/16 A3005 RMK A01 T02900157  RH  047%=      5-min Rain = 0
KMCS 210320Z 15007KT 29/16 A3005 RMK A01 T02890155  RH  046%=      5-min Rain = 0
KMCS 210325Z 15007KT 29/15 A3005 RMK A01 T02880154  RH  046%=      5-min Rain = 0
KMCS 210330Z 16008KT 29/15 A3005 RMK A01 T02870154  RH  046%=      5-min Rain = 0
KMCS 210335Z 16008KT 29/15 A3006 RMK A01 T02860153  RH  046%=      5-min Rain = 0
KMCS 210340Z 16007KT 29/15 A3006 RMK A01 T02860152  RH  046%=      5-min Rain = 0
KMCS 210345Z 15007KT 29/15 A3006 RMK A01 T02850151  RH  046%=      5-min Rain = 0
KMCS 210350Z 15007KT 28/15 A3005 RMK A01 T02840151  RH  046%=      5-min Rain = 0
KMCS 210355Z 15007KT 28/15 A3005 RMK A01 T02830151  RH  046%=      5-min Rain = 0
KMCS 210400Z 14007KT 28/15 A3006 RMK A01 T02800151  RH  047%=      5-min Rain = 0
KMCS 210405Z 15006KT 28/15 A3006 RMK A01 T02780151  RH  048%=      5-min Rain = 0
KMCS 210410Z 15007KT 28/15 A3006 RMK A01 T02780150  RH  048%=      5-min Rain = 0
KMCS 210415Z 14007KT 28/15 A3006 RMK A01 T02790149  RH  047%=      5-min Rain = 0
KMCS 210420Z 15007KT 28/15 A3006 RMK A01 T02800148  RH  047%=      5-min Rain = 0
KMCS 210425Z 15007KT 28/15 A3006 RMK A01 T02810149  RH  046%=      5-min Rain = 0
KMCS 210430Z 15006KT 28/15 A3006 RMK A01 T02800148  RH  047%=      5-min Rain = 0
KMCS 210435Z 15007KT 28/15 A3006 RMK A01 T02790149  RH  047%=      5-min Rain = 0
KMCS 210440Z 16006KT 28/15 A3006 RMK A01 T02770150  RH  048%=      5-min Rain = 0
KMCS 210445Z 16006KT 28/15 A3006 RMK A01 T02760150  RH  048%=      5-min Rain = 0
KMCS 210450Z 16007KT 28/15 A3006 RMK A01 T02760150  RH  048%=      5-min Rain = 0
KMCS 210455Z 16007KT 28/15 A3006 RMK A01 T02760151  RH  048%=      5-min Rain = 0

Page generated in 0.0101 seconds.